Time;durP1;ratioP1;P1;durP2;ratioP2;P2;SDS_P1;SDS_P2;PMS_P1;PMS_P2;Temp;Humidity;BMP_temperature;BMP_pressure;BME280_temperature;BME280_humidity;BME280_pressure;Samples;Min_cycle;Max_cycle;Signal;HPM_P1;HPM_P2
2020/12/19 00:00:26;;;;;;;7.73;6.30;;;;;;;8.25;100.00;100463.34;5098523;28;20195;-39
2020/12/19 00:03:13;;;;;;;7.57;6.77;;;;;;;8.21;100.00;100458.16;5098158;28;20193;-38
2020/12/19 00:06:00;;;;;;;9.60;6.90;;;;;;;7.87;100.00;100452.88;5098244;28;20191;-34
2020/12/19 00:09:02;;;;;;;7.67;6.50;;;;;;;7.69;100.00;100444.19;5098291;28;20204;-36
2020/12/19 00:11:52;;;;;;;7.97;6.70;;;;;;;7.60;100.00;100450.13;5098433;28;20547;-37
2020/12/19 00:14:38;;;;;;;8.90;7.17;;;;;;;7.51;100.00;100442.34;5078079;28;20249;-33
2020/12/19 00:17:31;;;;;;;9.87;6.97;;;;;;;7.41;100.00;100441.41;5078056;28;20358;-33
2020/12/19 00:20:22;;;;;;;8.40;7.00;;;;;;;7.38;100.00;100438.00;5077661;28;20964;-36
2020/12/19 00:23:08;;;;;;;9.20;7.83;;;;;;;7.19;100.00;100434.41;5077739;28;20261;-33
2020/12/19 00:25:54;;;;;;;8.23;7.13;;;;;;;7.09;100.00;100427.47;5077583;28;20277;-34
2020/12/19 00:28:41;;;;;;;9.13;7.20;;;;;;;7.04;100.00;100414.56;5077428;28;20269;-36
2020/12/19 00:31:27;;;;;;;9.80;7.53;;;;;;;6.94;100.00;100417.91;5077614;28;20199;-34
2020/12/19 00:34:16;;;;;;;8.93;8.03;;;;;;;6.86;100.00;100419.56;5077377;28;20195;-33
2020/12/19 00:37:03;;;;;;;10.33;8.07;;;;;;;6.57;100.00;100412.44;5077165;28;20227;-39
2020/12/19 00:39:49;;;;;;;9.27;6.93;;;;;;;6.45;100.00;100406.31;5077003;28;20339;-35
2020/12/19 00:42:37;;;;;;;9.03;7.47;;;;;;;6.39;100.00;100398.56;5078084;28;20203;-37
2020/12/19 00:45:23;;;;;;;11.17;8.13;;;;;;;6.45;100.00;100403.72;5076835;28;20293;-35
2020/12/19 00:48:09;;;;;;;9.67;7.97;;;;;;;6.24;100.00;100399.22;5077112;28;20467;-39
2020/12/19 00:50:57;;;;;;;9.17;7.67;;;;;;;6.26;100.00;100396.69;5077331;28;20199;-35
2020/12/19 00:53:44;;;;;;;10.13;7.97;;;;;;;6.26;100.00;100402.69;5077310;28;20347;-35
2020/12/19 00:56:37;;;;;;;8.70;7.27;;;;;;;6.34;100.00;100400.22;5076464;28;20231;-35
2020/12/19 00:59:25;;;;;;;9.20;6.97;;;;;;;6.24;100.00;100391.53;5076970;28;20257;-36
2020/12/19 01:02:15;;;;;;;9.77;7.20;;;;;;;6.21;100.00;100392.34;5077120;28;20258;-37
2020/12/19 01:05:01;;;;;;;9.07;7.80;;;;;;;6.16;100.00;100390.59;5076853;28;20492;-36
2020/12/19 01:07:48;;;;;;;12.97;8.57;;;;;;;6.21;100.00;100379.50;5076495;28;20487;-33
2020/12/19 01:10:34;;;;;;;11.50;8.50;;;;;;;6.08;100.00;100385.38;5076692;28;20200;-35
2020/12/19 01:13:20;;;;;;;9.87;7.60;;;;;;;6.09;100.00;100378.53;5077204;28;20204;-34
2020/12/19 01:16:15;;;;;;;9.97;7.97;;;;;;;6.04;100.00;100375.03;5076270;28;20215;-35
2020/12/19 01:19:13;;;;;;;11.20;8.70;;;;;;;5.93;100.00;100374.06;5076714;28;20216;-35
2020/12/19 01:22:07;;;;;;;11.77;8.07;;;;;;;5.96;100.00;100368.97;5076773;28;20367;-33
2020/12/19 01:24:54;;;;;;;9.77;7.80;;;;;;;6.11;100.00;100370.00;5076545;28;20485;-35
2020/12/19 01:27:40;;;;;;;10.50;7.53;;;;;;;6.38;100.00;100372.00;5076292;28;20195;-33
2020/12/19 01:30:26;;;;;;;11.63;8.03;;;;;;;6.72;100.00;100367.16;5076799;28;20346;-35
2020/12/19 01:33:12;;;;;;;8.00;6.93;;;;;;;6.61;100.00;100372.19;5076543;28;20262;-36
2020/12/19 01:35:59;;;;;;;9.93;7.47;;;;;;;6.35;100.00;100374.53;5076072;28;20529;-34
2020/12/19 01:38:46;;;;;;;9.50;8.30;;;;;;;6.31;100.00;100370.22;5076169;28;20638;-32
2020/12/19 01:41:33;;;;;;;9.93;8.00;;;;;;;6.30;100.00;100365.91;5075974;28;20605;-38
2020/12/19 01:44:20;;;;;;;10.23;7.33;;;;;;;6.09;100.00;100357.97;5076617;28;20401;-38
2020/12/19 01:47:10;;;;;;;9.80;8.23;;;;;;;6.04;100.00;100367.34;5075657;28;20191;-33
2020/12/19 01:49:59;;;;;;;9.77;7.37;;;;;;;5.93;100.00;100354.38;5076654;28;20200;-36
2020/12/19 01:52:45;;;;;;;8.13;7.27;;;;;;;5.77;100.00;100358.47;5076352;28;20199;-34
2020/12/19 01:55:33;;;;;;;13.37;9.00;;;;;;;5.70;100.00;100353.22;5076242;28;20313;-37
2020/12/19 01:58:20;;;;;;;9.53;7.63;;;;;;;5.63;100.00;100349.69;5075977;28;20341;-35
2020/12/19 02:01:10;;;;;;;13.23;8.40;;;;;;;5.73;100.00;100356.69;5076128;28;20261;-33
2020/12/19 02:04:16;;;;;;;9.10;7.73;;;;;;;5.90;100.00;100353.47;5076309;28;20203;-35
2020/12/19 02:07:05;;;;;;;9.60;8.60;;;;;;;6.01;100.00;100346.75;5075551;28;20482;-36
2020/12/19 02:09:52;;;;;;;11.60;8.57;;;;;;;6.14;100.00;100341.78;5075931;28;20200;-35
2020/12/19 02:12:38;;;;;;;10.13;8.07;;;;;;;6.06;100.00;100334.84;5076298;28;20199;-37
2020/12/19 02:15:25;;;;;;;9.93;7.80;;;;;;;6.03;100.00;100339.94;5076216;28;20260;-34
2020/12/19 02:18:11;;;;;;;12.70;8.70;;;;;;;5.96;100.00;100328.75;5076127;28;20223;-36
2020/12/19 02:20:59;;;;;;;11.50;8.50;;;;;;;5.90;100.00;100326.13;5076022;28;20199;-34
2020/12/19 02:23:46;;;;;;;9.90;8.37;;;;;;;5.88;100.00;100328.66;5075593;28;20194;-35
2020/12/19 02:26:32;;;;;;;12.53;8.87;;;;;;;5.86;100.00;100325.19;5075376;28;20200;-35
2020/12/19 02:29:19;;;;;;;11.53;9.03;;;;;;;5.90;100.00;100322.69;5076268;28;20204;-38
2020/12/19 02:32:05;;;;;;;12.37;9.10;;;;;;;5.95;100.00;100326.16;5076164;28;20215;-35
2020/12/19 02:34:52;;;;;;;12.43;9.40;;;;;;;5.75;100.00;100318.22;5076127;28;20208;-34
2020/12/19 02:37:38;;;;;;;12.53;8.97;;;;;;;5.89;100.00;100321.81;5075853;28;20230;-34
2020/12/19 02:40:25;;;;;;;10.60;8.83;;;;;;;5.92;100.00;100332.13;5076221;28;20199;-36
2020/12/19 02:43:11;;;;;;;11.63;8.73;;;;;;;5.78;100.00;100321.69;5076431;28;20620;-33
2020/12/19 02:45:58;;;;;;;11.53;8.37;;;;;;;5.81;100.00;100324.25;5075373;28;20200;-33
2020/12/19 02:48:44;;;;;;;11.57;9.37;;;;;;;5.71;100.00;100322.44;5075826;28;20211;-33
2020/12/19 02:51:31;;;;;;;11.17;8.73;;;;;;;5.74;100.00;100314.78;5075683;28;20194;-37
2020/12/19 02:54:17;;;;;;;14.03;10.90;;;;;;;5.84;100.00;100319.16;5078807;28;20508;-35
2020/12/19 02:57:04;;;;;;;14.50;10.80;;;;;;;6.31;100.00;100313.69;5079171;28;20233;-33
2020/12/19 02:59:50;;;;;;;12.40;10.13;;;;;;;6.55;100.00;100308.78;5079549;28;20199;-34
2020/12/19 03:02:36;;;;;;;13.87;8.93;;;;;;;6.75;100.00;100300.34;5079559;28;20196;-33
2020/12/19 03:05:23;;;;;;;11.50;8.47;;;;;;;6.97;100.00;100294.50;5078956;28;20199;-34
2020/12/19 03:08:09;;;;;;;9.43;7.63;;;;;;;6.98;100.00;100298.81;5079304;28;20495;-35
2020/12/19 03:10:55;;;;;;;9.53;7.37;;;;;;;6.99;100.00;100295.38;5079507;28;20204;-36
2020/12/19 03:13:42;;;;;;;10.00;8.30;;;;;;;7.08;100.00;100294.56;5079797;28;20200;-35
2020/12/19 03:16:28;;;;;;;8.73;7.80;;;;;;;7.07;100.00;100296.28;5078670;28;20239;-34
2020/12/19 03:19:15;;;;;;;8.63;7.53;;;;;;;6.97;100.00;100306.50;5078749;28;20506;-36
2020/12/19 03:22:03;;;;;;;9.63;8.33;;;;;;;6.76;100.00;100294.38;5079434;28;20196;-38
2020/12/19 03:24:50;;;;;;;9.07;7.90;;;;;;;6.57;100.00;100296.81;5079385;28;20246;-34
2020/12/19 03:27:37;;;;;;;11.00;7.70;;;;;;;6.36;100.00;100293.19;5078544;28;20212;-36
2020/12/19 03:30:24;;;;;;;12.33;8.60;;;;;;;6.18;100.00;100286.19;5079007;28;20262;-35
2020/12/19 03:33:10;;;;;;;11.43;8.83;;;;;;;6.17;100.00;100287.03;5079004;28;20488;-35
2020/12/19 03:35:56;;;;;;;10.80;8.67;;;;;;;6.08;100.00;100282.66;5078279;28;20206;-34
2020/12/19 03:38:42;;;;;;;11.37;9.67;;;;;;;6.05;100.00;100268.91;5078639;28;20223;-36
2020/12/19 03:41:28;;;;;;;13.00;9.43;;;;;;;6.08;100.00;100268.94;5078542;28;20204;-34
2020/12/19 03:44:14;;;;;;;11.07;8.77;;;;;;;5.89;100.00;100265.34;5078668;28;20608;-33
2020/12/19 03:47:02;;;;;;;11.23;9.63;;;;;;;5.88;100.00;100261.03;5077755;28;20195;-36
2020/12/19 03:49:48;;;;;;;11.30;9.50;;;;;;;5.71;100.00;100262.56;5078800;28;20198;-33
2020/12/19 03:52:34;;;;;;;12.13;10.03;;;;;;;5.81;100.00;100265.22;5078376;28;20203;-33
2020/12/19 03:55:21;;;;;;;13.87;10.73;;;;;;;5.93;100.00;100263.69;5078289;28;20579;-37
2020/12/19 03:58:07;;;;;;;15.20;11.27;;;;;;;6.04;100.00;100259.50;5077604;28;20682;-38
2020/12/19 04:00:53;;;;;;;13.77;10.10;;;;;;;5.92;100.00;100255.13;5077823;28;20210;-35
2020/12/19 04:03:40;;;;;;;13.77;10.70;;;;;;;5.96;100.00;100248.31;5078261;28;20611;-33
2020/12/19 04:06:26;;;;;;;12.17;9.93;;;;;;;5.95;100.00;100255.16;5077741;28;20211;-34
2020/12/19 04:09:13;;;;;;;16.53;10.67;;;;;;;5.91;100.00;100266.22;5078160;28;20196;-36
2020/12/19 04:11:59;;;;;;;13.07;10.17;;;;;;;5.98;100.00;100269.72;5078362;28;20206;-35
2020/12/19 04:14:45;;;;;;;14.07;10.63;;;;;;;5.91;100.00;100252.53;5078019;28;20553;-33
2020/12/19 04:17:32;;;;;;;14.93;11.70;;;;;;;5.84;100.00;100261.81;5076797;28;20230;-37
2020/12/19 04:20:20;;;;;;;13.37;10.37;;;;;;;5.80;100.00;100255.78;5078266;28;20206;-35
2020/12/19 04:23:06;;;;;;;13.67;11.13;;;;;;;5.87;100.00;100256.72;5077593;28;20204;-39
2020/12/19 04:25:52;;;;;;;12.90;11.07;;;;;;;5.88;100.00;100261.91;5077032;28;20207;-36
2020/12/19 04:28:39;;;;;;;16.10;11.77;;;;;;;5.92;100.00;100261.94;5077166;28;20212;-34
2020/12/19 04:31:25;;;;;;;20.70;11.13;;;;;;;5.83;100.00;100250.69;5077280;28;20346;-34
2020/12/19 04:34:11;;;;;;;14.73;10.83;;;;;;;5.65;100.00;100260.78;5077660;28;20200;-35
2020/12/19 04:36:58;;;;;;;17.87;11.90;;;;;;;5.59;100.00;100259.88;5076951;28;20222;-38
2020/12/19 04:39:45;;;;;;;14.67;10.87;;;;;;;5.80;100.00;100254.94;5077059;28;20238;-35
2020/12/19 04:42:32;;;;;;;14.47;11.63;;;;;;;5.65;100.00;100247.94;5077693;28;20480;-34
2020/12/19 04:45:18;;;;;;;13.93;11.43;;;;;;;5.72;100.00;100254.00;5076923;28;20206;-33
2020/12/19 04:48:04;;;;;;;17.77;11.90;;;;;;;5.65;100.00;100253.06;5076586;28;20198;-36
2020/12/19 04:50:51;;;;;;;15.27;12.07;;;;;;;5.56;100.00;100247.88;5076735;28;20203;-32
2020/12/19 04:53:38;;;;;;;15.80;11.37;;;;;;;5.52;100.00;100248.66;5076912;28;20204;-34
2020/12/19 04:56:24;;;;;;;14.17;11.90;;;;;;;5.49;100.00;100243.50;5077254;28;20204;-34
2020/12/19 04:59:11;;;;;;;14.40;11.37;;;;;;;5.36;100.00;100249.34;5076556;28;20197;-34
2020/12/19 05:01:59;;;;;;;17.37;12.00;;;;;;;5.22;100.00;100235.47;5076502;28;20352;-36
2020/12/19 05:04:45;;;;;;;18.60;12.43;;;;;;;5.05;100.00;100230.13;5076040;28;20194;-37
2020/12/19 05:07:31;;;;;;;15.30;12.67;;;;;;;5.04;100.00;100233.53;5076306;28;20215;-35
2020/12/19 05:10:18;;;;;;;14.53;12.20;;;;;;;4.95;100.00;100234.28;5077092;28;20193;-36
2020/12/19 05:13:05;;;;;;;15.23;12.23;;;;;;;4.93;100.00;100228.28;5076387;28;20192;-32
2020/12/19 05:15:51;;;;;;;20.07;12.77;;;;;;;4.93;100.00;100227.41;5075587;28;20198;-35
2020/12/19 05:18:38;;;;;;;17.10;13.10;;;;;;;4.88;100.00;100239.28;5076145;28;20261;-33
2020/12/19 05:21:25;;;;;;;16.97;12.70;;;;;;;4.86;100.00;100241.84;5076584;28;20229;-33
2020/12/19 05:24:14;;;;;;;19.23;13.03;;;;;;;4.79;100.00;100230.66;5075993;28;20204;-36
2020/12/19 05:27:03;;;;;;;21.33;14.93;;;;;;;4.85;100.00;100232.44;5076168;28;20190;-38
2020/12/19 05:29:57;;;;;;;17.17;12.93;;;;;;;4.77;100.00;100234.91;5076614;28;20205;-33
2020/12/19 05:32:44;;;;;;;19.67;15.30;;;;;;;4.90;100.00;100225.66;5076342;28;20255;-35
2020/12/19 05:35:31;;;;;;;22.20;14.87;;;;;;;4.88;100.00;100221.34;5076445;28;20199;-34
2020/12/19 05:38:17;;;;;;;19.47;14.40;;;;;;;4.71;100.00;100219.44;5076127;28;20621;-36
2020/12/19 05:41:04;;;;;;;19.77;13.97;;;;;;;4.58;100.00;100211.56;5075508;28;20219;-34
2020/12/19 05:43:52;;;;;;;18.77;14.23;;;;;;;4.48;100.00;100206.28;5075915;28;20290;-33
2020/12/19 05:46:39;;;;;;;20.33;15.00;;;;;;;4.48;100.00;100211.41;5075198;28;20544;-33
2020/12/19 05:49:25;;;;;;;22.73;14.37;;;;;;;4.62;100.00;100218.44;5076461;28;20590;-33
2020/12/19 05:52:15;;;;;;;21.80;15.33;;;;;;;4.49;100.00;100215.69;5076050;28;20353;-34
2020/12/19 05:55:06;;;;;;;20.40;15.83;;;;;;;4.43;100.00;100219.84;5075809;28;20471;-36
2020/12/19 05:57:53;;;;;;;25.67;17.00;;;;;;;4.48;100.00;100226.78;5075854;28;20228;-33
2020/12/19 06:00:40;;;;;;;22.27;16.80;;;;;;;4.40;100.00;100215.53;5076031;28;20204;-35
2020/12/19 06:03:27;;;;;;;23.90;17.13;;;;;;;4.38;100.00;100207.00;5076176;28;20474;-36
2020/12/19 06:06:14;;;;;;;22.87;16.33;;;;;;;4.35;100.00;100214.63;5075691;28;20255;-34
2020/12/19 06:09:01;;;;;;;25.27;17.03;;;;;;;4.42;100.00;100208.75;5076254;28;20196;-36
2020/12/19 06:11:50;;;;;;;24.67;16.60;;;;;;;4.40;100.00;100205.31;5076299;28;20639;-36
2020/12/19 06:14:40;;;;;;;27.80;17.00;;;;;;;4.33;100.00;100197.53;5076203;28;20528;-33
2020/12/19 06:17:37;;;;;;;22.07;16.53;;;;;;;4.37;100.00;100197.59;5075790;28;20227;-34
2020/12/19 06:20:24;;;;;;;26.50;17.77;;;;;;;4.54;100.00;100194.41;5076247;28;20242;-39
2020/12/19 06:23:15;;;;;;;25.90;17.83;;;;;;;4.49;100.00;100200.34;5075901;28;20501;-33
2020/12/19 06:26:02;;;;;;;26.50;18.07;;;;;;;4.60;100.00;100197.03;5075461;28;20199;-34
2020/12/19 06:28:50;;;;;;;28.27;19.17;;;;;;;4.69;100.00;100195.50;5079926;28;20195;-38
2020/12/19 06:31:36;;;;;;;27.03;18.13;;;;;;;4.84;100.00;100198.25;5080192;28;20288;-34
2020/12/19 06:34:24;;;;;;;31.00;19.40;;;;;;;4.84;100.00;100194.81;5080006;28;20331;-33
2020/12/19 06:37:20;;;;;;;29.23;20.00;;;;;;;5.13;100.00;100193.50;5079203;28;20232;-32
2020/12/19 06:40:15;;;;;;;30.70;21.40;;;;;;;5.16;100.00;100196.09;5079525;28;20199;-32
2020/12/19 06:43:11;;;;;;;26.80;18.17;;;;;;;4.63;100.00;100189.41;5083654;28;20203;-35
2020/12/19 06:45:58;;;;;;;28.17;17.67;;;;;;;4.51;100.00;100187.53;5079582;28;20203;-33
2020/12/19 06:48:44;;;;;;;28.83;18.17;;;;;;;4.94;100.00;100185.56;5079839;28;20196;-32
2020/12/19 06:51:57;;;;;;;27.70;19.17;;;;;;;5.53;100.00;100188.81;5080617;28;20217;-38
2020/12/19 06:54:45;;;;;;;23.13;17.80;;;;;;;6.05;100.00;100186.75;5079523;28;20205;-34
2020/12/19 06:57:32;;;;;;;26.50;18.00;;;;;;;6.43;100.00;100187.03;5079705;28;20230;-34
2020/12/19 07:00:19;;;;;;;23.00;16.23;;;;;;;6.84;100.00;100189.84;5079578;28;20192;-38
2020/12/19 07:03:05;;;;;;;22.70;16.77;;;;;;;7.33;100.00;100178.06;5079619;28;20320;-37
2020/12/19 07:05:55;;;;;;;19.90;16.10;;;;;;;7.42;100.00;100172.94;5078516;28;20195;-38
2020/12/19 07:08:43;;;;;;;18.20;13.87;;;;;;;7.55;100.00;100177.25;5079040;28;20219;-36
2020/12/19 07:11:41;;;;;;;16.33;13.07;;;;;;;7.61;100.00;100173.81;5079097;28;20273;-34
2020/12/19 07:14:39;;;;;;;17.17;13.10;;;;;;;7.71;100.00;100180.72;5078827;28;20223;-35
2020/12/19 07:17:25;;;;;;;17.23;13.73;;;;;;;7.62;100.00;100183.25;5078537;28;20270;-37
2020/12/19 07:20:12;;;;;;;16.03;12.80;;;;;;;7.68;100.00;100188.44;5079156;28;20200;-35
2020/12/19 07:22:58;;;;;;;16.57;13.27;;;;;;;7.75;100.00;100179.88;5080047;28;20212;-40
2020/12/19 07:25:45;;;;;;;16.97;12.57;;;;;;;8.01;100.00;100181.59;5079248;28;20199;-36
2020/12/19 07:28:32;;;;;;;16.43;12.57;;;;;;;7.88;100.00;100171.28;5078722;28;20292;-34
2020/12/19 07:31:18;;;;;;;15.63;12.93;;;;;;;7.99;100.00;100183.34;5078797;28;20277;-33
2020/12/19 07:34:05;;;;;;;13.37;11.83;;;;;;;7.90;100.00;100179.88;5079220;28;20300;-36
2020/12/19 07:36:53;;;;;;;18.17;12.57;;;;;;;7.99;100.00;100167.88;5078378;28;20191;-34
2020/12/19 07:39:39;;;;;;;17.57;14.10;;;;;;;7.99;100.00;100173.03;5078120;28;20309;-35
2020/12/19 07:42:26;;;;;;;18.70;13.10;;;;;;;8.01;100.00;100177.28;5079068;28;20199;-38
2020/12/19 07:45:16;;;;;;;18.43;13.17;;;;;;;7.99;100.00;100175.59;5078399;28;20483;-35
2020/12/19 07:48:02;;;;;;;15.30;13.27;;;;;;;7.93;100.00;100184.19;5078198;28;20350;-36
2020/12/19 07:50:48;;;;;;;16.40;13.97;;;;;;;7.99;100.00;100181.63;5078162;28;20482;-32
2020/12/19 07:53:43;;;;;;;19.40;13.57;;;;;;;7.82;100.00;100185.88;5078746;28;20297;-34
2020/12/19 07:56:30;;;;;;;17.73;13.93;;;;;;;7.66;100.00;100185.00;5078132;28;20207;-34
2020/12/19 07:59:17;;;;;;;17.30;12.90;;;;;;;7.61;100.00;100184.97;5077857;28;20203;-34
2020/12/19 08:02:05;;;;;;;17.07;13.53;;;;;;;7.76;100.00;100189.31;5078020;28;20596;-38
2020/12/19 08:04:54;;;;;;;16.50;14.03;;;;;;;7.82;100.00;100179.00;5078144;28;20414;-37
2020/12/19 08:07:40;;;;;;;17.77;13.60;;;;;;;7.85;100.00;100176.44;5077370;28;20192;-38
2020/12/19 08:10:26;;;;;;;19.20;15.17;;;;;;;8.25;100.00;100171.28;5077806;28;20275;-38
2020/12/19 08:13:13;;;;;;;16.63;13.63;;;;;;;8.52;100.00;100166.13;5077833;28;20211;-33
2020/12/19 08:15:59;;;;;;;16.10;13.27;;;;;;;9.07;100.00;100171.09;5077174;28;20199;-34
2020/12/19 08:18:47;;;;;;;16.57;13.27;;;;;;;9.20;100.00;100167.59;5076454;28;20281;-36
2020/12/19 08:21:35;;;;;;;13.93;12.27;;;;;;;9.09;100.00;100163.38;5077220;28;20504;-35
2020/12/19 08:24:21;;;;;;;14.93;11.77;;;;;;;8.88;100.00;100166.88;5077579;28;20320;-32
2020/12/19 08:27:35;;;;;;;12.77;10.20;;;;;;;9.06;100.00;100166.81;5077123;28;20199;-37
2020/12/19 08:30:28;;;;;;;15.73;12.03;;;;;;;9.06;100.00;100169.41;5077653;28;20205;-37
2020/12/19 08:33:15;;;;;;;14.20;11.80;;;;;;;9.03;100.00;100169.41;5077162;28;20550;-36
2020/12/19 08:36:01;;;;;;;13.70;11.80;;;;;;;9.14;100.00;100159.03;5076871;28;20448;-34
2020/12/19 08:38:49;;;;;;;14.90;11.57;;;;;;;9.02;100.00;100157.38;5077148;28;20345;-36
2020/12/19 08:41:37;;;;;;;14.33;12.37;;;;;;;8.99;100.00;100165.97;5077052;28;20484;-35
2020/12/19 08:44:24;;;;;;;13.47;11.93;;;;;;;9.06;100.00;100163.38;5077025;28;20648;-36
2020/12/19 08:47:14;;;;;;;13.53;11.20;;;;;;;9.07;100.00;100163.38;5076284;28;20236;-32
2020/12/19 08:50:03;;;;;;;12.23;10.73;;;;;;;9.35;100.00;100158.94;5076174;28;20278;-34
2020/12/19 08:53:08;;;;;;;13.43;11.40;;;;;;;9.24;100.00;100178.78;5077305;28;20350;-35
2020/12/19 08:55:55;;;;;;;13.73;11.93;;;;;;;9.05;100.00;100184.88;5077030;28;20467;-34
2020/12/19 08:58:42;;;;;;;15.10;11.80;;;;;;;9.29;100.00;100177.91;5074865;28;20235;-36
2020/12/19 09:01:31;;;;;;;15.33;12.07;;;;;;;9.32;100.00;100179.59;5077448;28;20203;-38
2020/12/19 09:04:18;;;;;;;14.57;11.93;;;;;;;9.27;100.00;100182.19;5077096;28;20194;-35
2020/12/19 09:07:12;;;;;;;14.20;11.63;;;;;;;9.43;100.00;100189.84;5076414;28;20203;-34
2020/12/19 09:10:23;;;;;;;13.23;11.23;;;;;;;9.62;100.00;100179.41;5066486;28;20262;-36
2020/12/19 09:13:21;;;;;;;16.20;12.40;;;;;;;9.80;100.00;100181.00;5069640;28;20211;-33
2020/12/19 09:16:08;;;;;;;17.20;13.43;;;;;;;9.89;100.00;100186.13;5077060;28;20640;-36
2020/12/19 09:18:56;;;;;;;17.20;13.10;;;;;;;10.24;100.00;100182.44;5075736;28;20506;-34
2020/12/19 09:21:52;;;;;;;21.50;13.50;;;;;;;10.05;100.00;100181.69;5076610;28;20188;-33
2020/12/19 09:24:39;;;;;;;17.87;14.00;;;;;;;10.35;100.00;100180.63;5076308;28;20614;-36
2020/12/19 09:27:27;;;;;;;14.67;12.63;;;;;;;10.35;100.00;100186.66;5076044;28;20200;-36
2020/12/19 09:30:14;;;;;;;17.37;13.40;;;;;;;10.38;100.00;100184.91;5062038;28;20200;-37
2020/12/19 09:33:03;;;;;;;15.20;13.23;;;;;;;10.65;100.00;100188.06;5069457;28;20356;-39
2020/12/19 09:35:58;;;;;;;15.30;11.93;;;;;;;10.70;100.00;100191.47;5056417;28;20206;-36
2020/12/19 09:38:48;;;;;;;13.57;11.20;;;;;;;10.87;100.00;100193.03;5066248;28;20244;-37
2020/12/19 09:41:35;;;;;;;13.43;11.43;;;;;;;10.95;100.00;100189.50;5075765;28;20200;-34
2020/12/19 09:44:21;;;;;;;13.50;11.00;;;;;;;11.19;100.00;100188.31;5076326;28;20586;-35
2020/12/19 09:47:07;;;;;;;13.37;10.83;;;;;;;11.44;100.00;100180.22;5075449;28;20203;-37
2020/12/19 09:49:57;;;;;;;13.20;10.13;;;;;;;11.34;100.00;100170.00;5076024;28;20679;-35
2020/12/19 09:52:43;;;;;;;16.20;10.47;;;;;;;11.31;100.00;100177.81;5076056;28;20586;-37
2020/12/19 09:55:31;;;;;;;11.03;9.80;;;;;;;11.24;100.00;100176.19;5075399;28;20243;-36
2020/12/19 09:58:19;;;;;;;10.93;9.13;;;;;;;11.45;100.00;100172.44;5081086;28;20233;-34
2020/12/19 10:01:05;;;;;;;9.90;8.90;;;;;;;11.53;100.00;100173.22;5096915;28;20585;-36
2020/12/19 10:03:52;;;;;;;10.23;8.97;;;;;;;11.62;100.00;100172.19;5096223;28;20571;-35
2020/12/19 10:06:38;;;;;;;10.10;9.00;;;;;;;11.76;100.00;100169.44;5096498;28;20304;-36
2020/12/19 10:09:27;;;;;;;11.30;8.57;;;;;;;11.89;100.00;100169.25;5095373;28;20191;-36
2020/12/19 10:12:13;;;;;;;9.70;8.70;;;;;;;12.15;100.00;100158.47;5097004;28;20924;-36
2020/12/19 10:15:04;;;;;;;13.07;8.40;;;;;;;12.22;100.00;100164.38;5096219;28;20304;-34
2020/12/19 10:17:50;;;;;;;7.90;7.10;;;;;;;12.97;100.00;100166.47;5095207;28;20376;-36
2020/12/19 10:20:36;;;;;;;9.60;7.80;;;;;;;12.99;100.00;100167.28;5095233;28;20248;-36
2020/12/19 10:23:22;;;;;;;9.67;8.47;;;;;;;13.60;100.00;100153.84;5095610;28;20623;-36
2020/12/19 10:26:11;;;;;;;11.17;7.60;;;;;;;13.10;100.00;100163.56;5078525;28;20513;-36
2020/12/19 10:28:58;;;;;;;9.60;7.20;;;;;;;13.17;100.00;100168.69;5075789;28;20196;-35
2020/12/19 10:31:45;;;;;;;9.07;7.67;;;;;;;13.58;100.00;100171.25;5076217;28;20594;-36
2020/12/19 10:34:32;;;;;;;7.63;6.73;;;;;;;13.32;100.00;100165.75;5076175;28;20252;-36
2020/12/19 10:37:18;;;;;;;9.20;7.13;;;;;;;13.82;100.00;100154.19;5075685;28;20263;-38
2020/12/19 10:40:05;;;;;;;7.73;6.43;;;;;;;13.58;100.00;100160.00;5076094;28;20478;-39
2020/12/19 10:42:51;;;;;;;8.20;6.80;;;;;;;13.56;100.00;100164.38;5075703;28;20199;-36
2020/12/19 10:45:37;;;;;;;7.03;6.33;;;;;;;13.37;100.00;100162.19;5074734;28;20475;-36
2020/12/19 10:48:24;;;;;;;8.13;6.70;;;;;;;13.76;100.00;100159.56;5074080;28;20490;-37
2020/12/19 10:51:10;;;;;;;7.37;6.10;;;;;;;13.03;100.00;100153.31;5073883;28;20200;-37
2020/12/19 10:53:57;;;;;;;7.10;5.90;;;;;;;13.46;100.00;100140.31;5074086;28;20187;-35
2020/12/19 10:56:43;;;;;;;9.00;6.50;;;;;;;13.64;100.00;100144.22;5074341;28;20355;-35
2020/12/19 10:59:30;;;;;;;6.13;5.53;;;;;;;13.18;100.00;100134.88;5074911;28;20228;-38
2020/12/19 11:02:16;;;;;;;6.07;5.50;;;;;;;13.35;100.00;100140.56;5074479;28;20307;-39
2020/12/19 11:05:04;;;;;;;8.57;6.17;;;;;;;13.40;100.00;100128.31;5074184;28;20296;-37
2020/12/19 11:07:50;;;;;;;7.10;5.90;;;;;;;13.52;100.00;100129.78;5074314;28;20694;-38
2020/12/19 11:10:36;;;;;;;6.13;5.43;;;;;;;13.44;100.00;100132.53;5073497;28;20200;-36
2020/12/19 11:13:22;;;;;;;6.43;5.73;;;;;;;13.66;100.00;100132.06;5073271;28;20268;-34
2020/12/19 11:16:08;;;;;;;5.93;5.33;;;;;;;13.52;100.00;100134.97;5077893;28;20218;-37
2020/12/19 11:18:58;;;;;;;7.63;5.53;;;;;;;13.25;100.00;100117.41;5094887;28;20215;-38
2020/12/19 11:21:46;;;;;;;19.80;17.87;;;;;;;12.90;100.00;100118.97;5095293;28;20495;-37
2020/12/19 11:24:32;;;;;;;6.20;5.57;;;;;;;12.96;100.00;100113.66;5098969;28;20196;-35
2020/12/19 11:27:20;;;;;;;6.50;5.43;;;;;;;12.63;100.00;100109.13;5098314;28;20486;-44
2020/12/19 11:30:07;;;;;;;7.63;5.03;;;;;;;12.67;100.00;100116.84;5098473;28;20305;-35
2020/12/19 11:32:53;;;;;;;6.63;5.70;;;;;;;12.71;100.00;100110.72;5098853;28;20194;-35
2020/12/19 11:35:40;;;;;;;7.33;5.70;;;;;;;12.82;100.00;100110.47;5098808;28;20362;-35
2020/12/19 11:38:27;;;;;;;5.67;5.10;;;;;;;12.94;100.00;100104.19;5098186;28;20239;-35
2020/12/19 11:41:22;;;;;;;6.90;5.80;;;;;;;12.73;100.00;100113.28;5099375;28;20593;-36
2020/12/19 11:44:09;;;;;;;7.17;5.37;;;;;;;12.77;100.00;100110.59;5098576;28;20631;-35
2020/12/19 11:46:56;;;;;;;7.13;5.13;;;;;;;12.62;100.00;100110.88;5098552;28;20210;-35
2020/12/19 11:49:42;;;;;;;5.63;5.10;;;;;;;12.63;100.00;100104.81;5098544;28;20292;-36
2020/12/19 11:52:33;;;;;;;5.43;4.87;;;;;;;12.50;100.00;100115.47;5097931;28;20198;-37
2020/12/19 11:55:20;;;;;;;6.17;5.53;;;;;;;12.87;100.00;100120.78;5097123;28;20195;-34
2020/12/19 11:58:06;;;;;;;5.90;5.30;;;;;;;12.75;100.00;100117.56;5097324;28;20625;-39
2020/12/19 12:00:53;;;;;;;6.43;5.77;;;;;;;12.56;100.00;100113.59;5077646;28;20203;-38
2020/12/19 12:03:39;;;;;;;5.27;4.77;;;;;;;12.79;100.00;100113.13;5077802;28;20212;-36
2020/12/19 12:06:32;;;;;;;5.67;5.17;;;;;;;12.97;100.00;100107.59;5077611;28;20204;-36
2020/12/19 12:09:18;;;;;;;6.43;5.07;;;;;;;13.07;100.00;100106.50;5077905;28;20208;-37
2020/12/19 12:12:11;;;;;;;6.20;5.67;;;;;;;13.03;100.00;100097.03;5077946;28;20270;-35
2020/12/19 12:15:00;;;;;;;7.37;5.00;;;;;;;13.20;100.00;100101.06;5077190;28;20388;-36
2020/12/19 12:17:48;;;;;;;5.57;5.07;;;;;;;13.52;100.00;100090.78;5077571;28;20235;-38
2020/12/19 12:20:35;;;;;;;5.23;4.73;;;;;;;13.01;100.00;100084.97;5077467;28;20606;-36
2020/12/19 12:23:21;;;;;;;5.97;5.37;;;;;;;12.87;100.00;100085.28;5077525;28;20201;-37
2020/12/19 12:26:10;;;;;;;5.37;4.87;;;;;;;13.42;100.00;100086.69;5076396;28;20293;-37
2020/12/19 12:28:57;;;;;;;8.33;5.83;;;;;;;13.14;100.00;100090.78;5077078;28;20299;-38
2020/12/19 12:31:43;;;;;;;6.67;4.73;;;;;;;13.08;100.00;100095.22;5077586;28;20616;-40
2020/12/19 12:34:30;;;;;;;5.77;4.97;;;;;;;13.00;100.00;100081.53;5079927;28;20239;-35
2020/12/19 12:37:19;;;;;;;6.00;4.70;;;;;;;13.61;100.00;100089.72;5085168;28;20199;-38
2020/12/19 12:40:05;;;;;;;9.03;4.70;;;;;;;14.33;100.00;100086.16;5096760;28;20483;-38
2020/12/19 12:42:51;;;;;;;4.97;4.57;;;;;;;14.04;100.00;100089.50;5097563;28;20199;-33
2020/12/19 12:45:39;;;;;;;5.13;4.63;;;;;;;13.50;100.00;100081.31;5096886;28;20609;-38
2020/12/19 12:48:25;;;;;;;5.93;4.83;;;;;;;13.88;100.00;100081.25;5097014;28;20195;-37